Flight Track Log - Related Links

Times and Time Zones

All times are in EDT time to prevent confusion due to time zone crossing. See the RPA3321 flight status page for this flight to view local times or setup timezone preferences in your user account.

Time Position Orientation Groundspeed Altitude Reporting Facility
EDT Latitude Longitude Course Direction KTS MPH feet Rate Location/Type
Wed 05:43:23 AM 42.7819 -73.8064 169° South 160 184 1,900  Level Boston Center
Wed 05:44:23 AM 42.8381 -73.8133 355° North 217 250 3,800 2,344 Climbing Boston Center
Wed 05:45:00 AM 42.5038 -74.0197 171° South  Level Estimated
Wed 05:45:31 AM 42.8936 -73.8742 321° Northwest 278 320 6,900  Level Boston Center
Wed 05:46:00 AM 42.4220 -74.0918 180° South  Level Estimated
Wed 05:46:31 AM 42.9508 -73.9547 314° West 278 320 9,700  Level Boston Center
Wed 05:47:00 AM 42.3401 -74.1638 170° South  Level Estimated
Wed 05:47:31 AM 42.9914 -74.0381 304° West 283 326 11,300  Level Boston Center
Wed 05:48:00 AM 42.2581 -74.2356 169° South  Level Estimated
Wed 05:48:31 AM 42.9278 -74.1131 221° Southwest 223 257 14,100  Level Boston Center
Wed 05:49:31 AM 42.8389 -74.0767 163° South 267 307 16,300 2,300 Climbing Boston Center
Wed 05:50:31 AM 42.7414 -74.0317 161° South 322 371 18,700 2,000 Climbing Boston Center
Wed 05:51:31 AM 42.6525 -73.9928 162° South 348 400 20,300 1,750 Climbing Boston Center
Wed 05:52:31 AM 42.5406 -73.9447 162° South 365 420 22,200 1,750 Climbing Boston Center
Wed 05:53:31 AM 42.4369 -73.8972 161° South 384 442 23,800 1,550 Climbing Boston Center
Wed 05:54:31 AM 42.3269 -73.8497 162° South 398 458 25,300 1,350 Climbing Boston Center
Wed 05:55:31 AM 42.2172 -73.7997 161° South 410 472 26,500 1,300 Climbing Boston Center
Wed 05:56:31 AM 42.1053 -73.7553 164° South 416 479 27,900 1,250 Climbing Boston Center
Wed 05:57:31 AM 41.9922 -73.7864 192° South 408 470 29,000 1,100 Climbing Boston Center
Wed 05:58:31 AM 41.8853 -73.8456 202° Southwest 401 461 30,100 920 Climbing Boston Center
Wed 06:00:27 AM 41.6831 -73.9486 201° Southwest 414 476 31,700 648 Climbing New Center
Wed 06:01:27 AM 41.5733 -74.0044 201° Southwest 420 483 32,000 148 Climbing New Center
Wed 06:02:29 AM 41.4614 -74.0653 202° Southwest 423 487 32,000  Level New Center
Wed 06:03:29 AM 41.3494 -74.1206 200° South 423 487 32,000  Level New Center
Wed 06:04:29 AM 41.2394 -74.1786 202° Southwest 429 494 32,000  Level New Center
Wed 06:05:29 AM 41.1108 -74.2353 198° South 436 502 32,000 -305 Level New Center
Wed 06:06:27 AM 41.0006 -74.2958 203° Southwest 442 509 31,400 -1,261 Descending New Center
Wed 06:07:28 AM 40.8886 -74.3503 200° South 437 503 29,500 -1,672 Descending New Center
Wed 06:08:29 AM 40.7964 -74.4333 214° Southwest 411 473 28,000 -756 Descending New Center
Wed 06:09:27 AM 40.7203 -74.5414 227° Southwest 411 473 28,000  Level New Center
Wed 06:10:28 AM 40.6478 -74.6494 229° Southwest 406 467 28,000  Level New Center
Wed 06:11:27 AM 40.5711 -74.7628 228° Southwest 406 467 28,000  Level New Center
Wed 06:12:28 AM 40.5014 -74.8569 226° Southwest 406 467 28,000  Level New Center
Wed 06:13:28 AM 40.4289 -74.9644 228° Southwest 411 473 28,000  Level New Center
Wed 06:14:27 AM 40.3519 -75.0686 226° Southwest 405 466 28,000  Level New Center
Wed 06:15:27 AM 40.2772 -75.1756 228° Southwest 405 466 28,000 -99 Level New Center
Wed 06:16:28 AM 40.2022 -75.2822 227° Southwest 405 466 27,800 -1,328 Descending New Center
Wed 06:17:29 AM 40.1275 -75.3858 227° Southwest 405 466 25,300 -2,571 Descending New Center
Wed 06:18:27 AM 40.0525 -75.4894 227° Southwest 400 460 22,700 -1,678 Descending New Center
Wed 06:19:27 AM 39.9839 -75.5850 227° Southwest 388 447 22,000 -347 Descending New Center
Wed 06:20:28 AM 39.9175 -75.6806 228° Southwest 375 432 22,000 -450 Level New Center
Wed 06:21:27 AM 39.8569 -75.7819 232° Southwest 370 426 21,100 -950 Descending New Center
Wed 06:22:28 AM 39.7944 -75.8800 230° Southwest 364 419 20,100 -1,091 Descending New Center
Wed 06:23:28 AM 39.7319 -75.9700 228° Southwest 359 413 18,900 -1,339 Descending New Center
Wed 06:24:29 AM 39.6714 -76.0681 231° Southwest 354 407 17,400 -1,475 Descending New Center
Wed 06:26:27 AM 39.5500 -76.2667 232° Southwest 314 361 14,500 -1,449 Descending Potomac TRACON
Wed 06:27:27 AM 39.5000 -76.3500 232° Southwest 309 356 13,100 -1,211 Descending Potomac TRACON
Wed 06:28:21 AM 39.4500 -76.4167 226° Southwest 308 354 12,200 -947 Descending Potomac TRACON
Wed 06:29:21 AM 39.3833 -76.4833 218° Southwest 305 351 11,300 -850 Descending Potomac TRACON
Wed 06:30:21 AM 39.3167 -76.5500 218° Southwest 301 346 10,500 -684 Descending Potomac TRACON
Wed 06:31:15 AM 39.2500 -76.6000 210° Southwest 292 336 10,000 -278 Descending Potomac TRACON
Wed 06:32:09 AM 39.1833 -76.6500 210° Southwest 275 316 10,000  Level Potomac TRACON
Wed 06:33:09 AM 39.1333 -76.7167 226° Southwest 276 318 10,000 -200 Level Potomac TRACON
Wed 06:34:09 AM 39.0667 -76.7833 218° Southwest 277 319 9,600 -684 Descending Potomac TRACON
Wed 06:35:03 AM 39.0167 -76.8333 218° Southwest 275 316 8,700 -1,000 Descending Potomac TRACON
Wed 06:36:03 AM 38.9667 -76.9000 226° Southwest 268 308 7,700 -1,000 Descending Potomac TRACON
Wed 06:37:03 AM 38.9000 -76.9500 210° Southwest 269 310 6,700 -1,100 Descending Potomac TRACON
Wed 06:38:03 AM 38.8333 -76.9500 180° South 273 314 5,500 -1,350 Descending Potomac TRACON
Wed 06:39:03 AM 38.7667 -76.9500 180° South 247 284 4,000 -1,500 Descending Potomac TRACON

Login

Don't have an account? Register now (free) for customized features, flight alerts, and more!